Terminal Aerodrome Forecast
Issued by NWS Honolulu, HI

Home | Current Version | Previous Version | Text Only | Print | Product List | Glossary On
Versions: 1 2 3 4 5 6 7 8 9 10 11 12 13 14 15 16 17 18 19 20 21 22 23 24 25 26 27
000
FTPA31 PHFO 301700
TAFHNL
TAF
PHNL 301721Z 3018/3124 06009KT P6SM FEW028 SCT045
     FM302100 06016G26KT P6SM FEW028 SCT045
     FM310500 05010G18KT P6SM VCSH FEW028 SCT045
     FM311200 05010KT P6SM VCSH FEW025 BKN045
     FM312000 05016G26KT P6SM FEW030=

USA.gov is the U.S. government's official web portal to all federal, state and local government web resources and services.